createdAt,value
2023-02-11T00:01:23.963Z,1.90
2023-02-11T00:06:22.364Z,1.80
2023-02-11T00:08:50.908Z,2.15
2023-02-11T00:11:22.104Z,2.30
2023-02-11T00:13:53.801Z,2.38
2023-02-11T00:16:22.971Z,2.45
2023-02-11T00:18:53.243Z,2.35
2023-02-11T00:21:25.474Z,2.22
2023-02-11T00:23:55.041Z,2.25
2023-02-11T00:26:25.573Z,2.05
2023-02-11T00:28:54.095Z,2.17
2023-02-11T00:31:24.390Z,2.60
2023-02-11T00:33:52.681Z,3.17
2023-02-11T00:36:24.480Z,2.13
2023-02-11T00:38:54.489Z,2.53
2023-02-11T00:41:23.580Z,2.47
2023-02-11T00:43:52.061Z,2.80
2023-02-11T00:46:20.838Z,2.63
2023-02-11T00:48:49.221Z,2.70
2023-02-11T00:51:17.817Z,2.72
2023-02-11T00:53:47.426Z,2.83
2023-02-11T00:56:15.619Z,2.70
2023-02-11T00:58:43.749Z,3.15
2023-02-11T01:01:12.683Z,2.58
2023-02-11T01:03:41.610Z,2.78
2023-02-11T01:06:11.178Z,2.42
2023-02-11T01:08:40.133Z,3.45
2023-02-11T01:11:14.363Z,2.88
2023-02-11T01:13:43.112Z,3.33
2023-02-11T01:16:12.936Z,3.42
2023-02-11T01:18:41.976Z,3.10
2023-02-11T01:21:10.217Z,2.58
2023-02-11T01:23:38.344Z,2.92
2023-02-11T01:26:07.569Z,3.40
2023-02-11T01:28:37.373Z,2.90
2023-02-11T01:31:06.056Z,3.15
2023-02-11T01:33:34.368Z,2.40
2023-02-11T01:36:03.990Z,2.75
2023-02-11T01:38:32.510Z,2.65
2023-02-11T01:41:04.544Z,2.28
2023-02-11T01:43:36.483Z,2.47
2023-02-11T01:46:18.834Z,2.97
2023-02-11T01:48:51.689Z,2.72
2023-02-11T01:51:23.352Z,2.83
2023-02-11T01:54:09.772Z,2.90
2023-02-11T01:57:02.778Z,2.35
2023-02-11T01:59:35.791Z,2.45
2023-02-11T02:02:11.573Z,2.58
2023-02-11T02:04:46.085Z,2.50
2023-02-11T02:07:21.133Z,2.00
2023-02-11T02:09:57.528Z,2.30
2023-02-11T02:12:25.705Z,2.90
2023-02-11T02:15:13.758Z,2.47
2023-02-11T02:17:50.888Z,1.88
2023-02-11T02:20:47.618Z,2.05
2023-02-11T02:23:29.987Z,2.00
2023-02-11T02:26:34.606Z,1.90
2023-02-11T02:29:27.364Z,2.10
2023-02-11T02:32:28.171Z,2.00
2023-02-11T02:35:03.888Z,2.33
2023-02-11T02:37:37.348Z,2.00
2023-02-11T02:40:11.451Z,1.98
2023-02-11T02:42:42.991Z,2.30
2023-02-11T02:47:42.309Z,1.70
2023-02-11T02:50:12.569Z,1.88
2023-02-11T02:52:48.775Z,1.65
2023-02-11T02:55:39.224Z,1.98
2023-02-11T02:58:29.316Z,1.63
2023-02-11T03:01:05.319Z,2.10
2023-02-11T03:03:44.090Z,1.30
2023-02-11T03:06:17.628Z,1.92
2023-02-11T03:08:50.570Z,1.40
2023-02-11T03:11:20.750Z,1.40
2023-02-11T03:13:51.136Z,1.63
2023-02-11T03:16:23.414Z,1.45
2023-02-11T03:18:59.527Z,2.08
2023-02-11T03:21:29.246Z,1.45
2023-02-11T03:24:02.044Z,1.63
2023-02-11T03:26:33.606Z,1.65
2023-02-11T03:31:38.521Z,2.40
2023-02-11T03:34:14.511Z,1.73
2023-02-11T03:36:47.386Z,2.10
2023-02-11T03:39:19.049Z,2.22
2023-02-11T03:41:48.948Z,2.10
2023-02-11T03:44:18.605Z,2.03
2023-02-11T03:46:52.056Z,1.85
2023-02-11T03:49:24.387Z,1.80
2023-02-11T03:51:54.986Z,2.10
2023-02-11T03:54:28.651Z,1.43
2023-02-11T03:57:01.209Z,1.67
2023-02-11T03:59:29.851Z,1.75
2023-02-11T04:01:59.610Z,2.00
2023-02-11T04:04:29.339Z,1.73
2023-02-11T04:06:57.755Z,1.50
2023-02-11T04:09:25.983Z,2.10
2023-02-11T04:11:54.163Z,1.30
2023-02-11T04:14:22.712Z,2.20
2023-02-11T04:16:50.959Z,1.75
2023-02-11T04:19:19.110Z,1.50
2023-02-11T04:21:48.892Z,1.52
2023-02-11T04:24:17.108Z,1.77
2023-02-11T04:26:45.428Z,1.90
2023-02-11T04:29:13.486Z,1.67
2023-02-11T04:31:41.970Z,1.40
2023-02-11T04:34:12.032Z,1.60
2023-02-11T04:36:40.426Z,1.35
2023-02-11T04:39:09.973Z,1.27
2023-02-11T04:41:38.217Z,1.50
2023-02-11T04:44:06.842Z,1.90
2023-02-11T04:46:34.967Z,1.13
2023-02-11T04:49:03.194Z,1.38
2023-02-11T04:51:31.846Z,1.38
2023-02-11T04:54:00.139Z,1.65
2023-02-11T04:56:29.765Z,1.42
2023-02-11T04:58:58.088Z,1.23
2023-02-11T05:01:26.271Z,1.13
2023-02-11T05:03:54.708Z,1.70
2023-02-11T05:06:22.934Z,0.90
2023-02-11T05:08:51.217Z,1.15
2023-02-11T05:11:22.118Z,1.00
2023-02-11T05:13:51.986Z,1.00
2023-02-11T05:16:20.778Z,1.10
2023-02-11T05:18:52.433Z,1.65
2023-02-11T05:21:21.193Z,1.35
2023-02-11T05:23:49.920Z,1.00
2023-02-11T05:26:18.645Z,1.38
2023-02-11T05:28:47.306Z,0.93
2023-02-11T05:31:19.403Z,1.45
2023-02-11T05:33:47.717Z,1.02
2023-02-11T05:36:16.909Z,0.98
2023-02-11T05:38:45.218Z,1.02
2023-02-11T05:41:13.437Z,0.98
2023-02-11T05:43:41.551Z,1.15
2023-02-11T05:46:09.718Z,1.55
2023-02-11T05:48:39.511Z,1.02
2023-02-11T05:51:07.711Z,0.90
2023-02-11T05:53:36.177Z,1.30
2023-02-11T05:56:04.575Z,0.90
2023-02-11T05:58:33.854Z,1.20
2023-02-11T06:01:02.010Z,1.08
2023-02-11T06:03:30.273Z,1.00
2023-02-11T06:05:59.887Z,1.10
2023-02-11T06:08:28.004Z,0.90
2023-02-11T06:10:56.096Z,1.15
2023-02-11T06:13:24.194Z,1.30
2023-02-11T06:15:58.581Z,1.20
2023-02-11T06:18:27.192Z,1.20
2023-02-11T06:20:55.476Z,1.48
2023-02-11T06:23:30.248Z,1.95
2023-02-11T06:26:03.184Z,1.60
2023-02-11T06:28:32.518Z,1.98
2023-02-11T06:31:06.701Z,2.10
2023-02-11T06:33:35.531Z,1.83
2023-02-11T06:36:03.918Z,2.30
2023-02-11T06:38:33.542Z,2.20
2023-02-11T06:41:01.783Z,2.50
2023-02-11T06:43:30.116Z,2.50
2023-02-11T06:45:58.294Z,2.30
2023-02-11T06:48:26.469Z,2.28
2023-02-11T06:50:54.737Z,2.10
2023-02-11T06:53:22.887Z,1.90
2023-02-11T06:55:52.658Z,2.10
2023-02-11T06:58:20.858Z,2.30
2023-02-11T07:00:49.036Z,1.88
2023-02-11T07:03:17.323Z,2.00
2023-02-11T07:05:45.487Z,2.10
2023-02-11T07:08:13.657Z,1.60
2023-02-11T07:10:41.930Z,1.60
2023-02-11T07:13:11.419Z,1.65
2023-02-11T07:15:39.613Z,1.20
2023-02-11T07:18:07.782Z,1.70
2023-02-11T07:20:35.969Z,2.13
2023-02-11T07:23:04.134Z,1.35
2023-02-11T07:25:32.353Z,1.38
2023-02-11T07:28:00.544Z,0.98
2023-02-11T07:30:30.095Z,1.15
2023-02-11T07:32:58.590Z,0.80
2023-02-11T07:35:26.876Z,0.82
2023-02-11T07:37:55.060Z,1.17
2023-02-11T07:40:23.273Z,0.73
2023-02-11T07:42:51.466Z,1.38
2023-02-11T07:45:19.845Z,0.95
2023-02-11T07:47:49.426Z,0.95
2023-02-11T07:50:18.518Z,1.27
2023-02-11T07:52:46.699Z,1.10
2023-02-11T07:55:14.861Z,1.10
2023-02-11T07:57:43.095Z,1.25
2023-02-11T08:00:12.816Z,1.65
2023-02-11T08:02:41.007Z,1.85
2023-02-11T08:05:11.301Z,1.33
2023-02-11T08:07:39.462Z,1.23
2023-02-11T08:10:08.062Z,0.93
2023-02-11T08:12:36.235Z,0.90
2023-02-11T08:15:04.490Z,1.00
2023-02-11T08:17:32.681Z,0.70
2023-02-11T08:20:00.853Z,0.90
2023-02-11T08:22:32.759Z,1.00
2023-02-11T08:25:00.996Z,1.23
2023-02-11T08:27:30.325Z,1.27
2023-02-11T08:30:00.120Z,1.13
2023-02-11T08:32:28.274Z,1.02
2023-02-11T08:34:56.555Z,1.15
2023-02-11T08:37:24.780Z,1.00
2023-02-11T08:39:54.447Z,1.10
2023-02-11T08:42:22.722Z,1.23
2023-02-11T08:44:50.992Z,1.00
2023-02-11T08:47:19.070Z,1.20
2023-02-11T08:49:47.506Z,1.50
2023-02-11T08:52:15.845Z,1.17
2023-02-11T08:54:44.251Z,1.27
2023-02-11T08:57:13.952Z,1.60
2023-02-11T08:59:42.067Z,0.80
2023-02-11T09:02:13.173Z,1.08
2023-02-11T09:04:44.171Z,1.30
2023-02-11T09:07:12.696Z,2.75
2023-02-11T09:09:40.861Z,1.08
2023-02-11T09:12:09.163Z,1.52
2023-02-11T09:14:38.808Z,1.45
2023-02-11T09:17:06.952Z,1.48
2023-02-11T09:19:35.211Z,1.30
2023-02-11T09:22:06.472Z,1.30
2023-02-11T09:24:34.687Z,1.05
2023-02-11T09:27:02.863Z,1.10
2023-02-11T09:29:31.042Z,1.52
2023-02-11T09:32:00.820Z,1.85
2023-02-11T09:34:29.044Z,1.88
2023-02-11T09:36:57.117Z,1.75
2023-02-11T09:39:26.853Z,2.40
2023-02-11T09:42:30.495Z,1.50
2023-02-11T09:45:00.799Z,0.90
2023-02-11T09:47:34.623Z,1.27
2023-02-11T09:50:05.739Z,1.25
2023-02-11T09:52:40.427Z,1.25
2023-02-11T09:55:19.884Z,0.88
2023-02-11T09:57:48.338Z,1.42
2023-02-11T10:00:23.189Z,1.40
2023-02-11T10:03:09.061Z,1.77
2023-02-11T10:05:53.032Z,1.63
2023-02-11T10:08:31.888Z,1.35
2023-02-11T10:11:05.730Z,1.25
2023-02-11T10:13:55.515Z,1.85
2023-02-11T10:16:45.742Z,3.45
2023-02-11T10:19:45.319Z,1.60
2023-02-11T10:22:20.608Z,1.40
2023-02-11T10:24:54.846Z,1.65
2023-02-11T10:27:29.214Z,2.17
2023-02-11T10:30:03.402Z,1.98
2023-02-11T10:32:39.176Z,2.20
2023-02-11T10:35:18.124Z,1.52
2023-02-11T10:37:46.273Z,1.58
2023-02-11T10:40:16.786Z,1.40
2023-02-11T10:42:49.469Z,1.45
2023-02-11T10:45:23.948Z,2.38
2023-02-11T10:47:52.106Z,1.70
2023-02-11T10:50:25.101Z,2.90
2023-02-11T10:52:53.456Z,1.42
2023-02-11T10:55:25.678Z,1.13
2023-02-11T10:58:00.269Z,1.60
2023-02-11T11:00:40.019Z,1.55
2023-02-11T11:03:20.057Z,1.00
2023-02-11T11:05:52.481Z,1.65
2023-02-11T11:08:21.285Z,2.60
2023-02-11T11:11:03.829Z,1.38
2023-02-11T11:13:33.876Z,1.20
2023-02-11T11:16:19.749Z,1.60
2023-02-11T11:18:49.618Z,1.42
2023-02-11T11:21:23.016Z,1.40
2023-02-11T11:23:55.417Z,1.40
2023-02-11T11:26:25.413Z,2.22
2023-02-11T11:29:02.821Z,1.70
2023-02-11T11:31:35.949Z,1.63
2023-02-11T11:34:24.687Z,2.13
2023-02-11T11:36:55.031Z,1.63
2023-02-11T11:39:26.335Z,1.33
2023-02-11T11:41:58.546Z,1.50
2023-02-11T11:44:30.524Z,1.30
2023-02-11T11:47:19.825Z,1.63
2023-02-11T11:49:54.201Z,1.45
2023-02-11T11:52:36.843Z,1.17
2023-02-11T11:55:13.262Z,1.80
2023-02-11T11:57:41.862Z,1.52
2023-02-11T12:00:20.725Z,1.55
2023-02-11T12:03:21.672Z,1.83
2023-02-11T12:06:03.739Z,2.08
2023-02-11T12:08:43.735Z,1.27
2023-02-11T12:11:21.643Z,1.40
2023-02-11T12:14:02.207Z,1.58
2023-02-11T12:16:41.723Z,1.50
2023-02-11T12:19:25.026Z,2.22
2023-02-11T12:22:02.264Z,1.40
2023-02-11T12:24:43.232Z,1.60
2023-02-11T12:27:18.682Z,1.10
2023-02-11T12:30:00.240Z,1.25
2023-02-11T12:32:38.594Z,0.98
2023-02-11T12:35:27.460Z,2.05
2023-02-11T12:38:33.075Z,1.48
2023-02-11T12:41:42.985Z,1.05
2023-02-11T12:44:17.821Z,1.42
2023-02-11T12:46:52.248Z,1.10
2023-02-11T12:49:38.802Z,1.60
2023-02-11T12:52:22.755Z,0.85
2023-02-11T12:54:58.812Z,1.35
2023-02-11T12:57:30.436Z,1.42
2023-02-11T13:00:05.853Z,1.10
2023-02-11T13:02:43.630Z,1.35
2023-02-11T13:05:23.433Z,1.38
2023-02-11T13:07:54.160Z,2.38
2023-02-11T13:10:31.292Z,1.40
2023-02-11T13:13:18.850Z,1.55
2023-02-11T13:15:51.782Z,1.27
2023-02-11T13:18:38.035Z,2.47
2023-02-11T13:21:23.112Z,1.20
2023-02-11T13:24:00.839Z,1.33
2023-02-11T13:26:36.323Z,1.58
2023-02-11T13:29:19.920Z,2.30
2023-02-11T13:31:55.631Z,1.08
2023-02-11T13:34:48.259Z,1.20
2023-02-11T13:37:23.567Z,1.20
2023-02-11T13:39:59.073Z,1.73
2023-02-11T13:42:27.921Z,1.17
2023-02-11T13:44:58.078Z,1.58
2023-02-11T13:47:32.532Z,1.27
2023-02-11T13:50:03.368Z,1.70
2023-02-11T13:52:34.587Z,2.28
2023-02-11T13:55:10.788Z,2.15
2023-02-11T13:57:40.847Z,1.30
2023-02-11T14:00:41.454Z,1.27
2023-02-11T14:03:55.243Z,1.17
2023-02-11T14:06:43.675Z,1.10
2023-02-11T14:09:37.068Z,1.10
2023-02-11T14:12:32.827Z,1.98
2023-02-11T14:15:18.813Z,1.35
2023-02-11T14:17:47.107Z,1.70
2023-02-11T14:20:39.891Z,1.38
2023-02-11T14:23:08.938Z,1.20
2023-02-11T14:25:38.915Z,2.05
2023-02-11T14:28:17.882Z,1.23
2023-02-11T14:30:58.526Z,2.15
2023-02-11T14:34:01.513Z,1.50
2023-02-11T14:37:13.322Z,1.52
2023-02-11T14:39:57.349Z,1.60
2023-02-11T14:42:28.262Z,2.28
2023-02-11T14:45:00.820Z,3.70
2023-02-11T14:47:51.484Z,2.05
2023-02-11T14:50:26.005Z,3.85
2023-02-11T14:52:57.040Z,2.35
2023-02-11T14:55:33.252Z,1.90
2023-02-11T14:58:09.929Z,1.55
2023-02-11T15:00:38.365Z,3.00
2023-02-11T15:03:06.466Z,1.77
2023-02-11T15:05:34.725Z,2.67
2023-02-11T15:08:09.075Z,2.47
2023-02-11T15:10:44.380Z,2.00
2023-02-11T15:13:20.355Z,1.30
2023-02-11T15:15:52.093Z,1.45
2023-02-11T15:18:24.410Z,1.77
2023-02-11T15:20:53.359Z,1.95
2023-02-11T15:23:26.370Z,1.40
2023-02-11T15:25:56.297Z,2.20
2023-02-11T15:28:29.040Z,1.52
2023-02-11T15:31:02.631Z,1.13
2023-02-11T15:33:32.341Z,1.50
2023-02-11T15:36:02.903Z,1.27
2023-02-11T15:38:33.222Z,0.90
2023-02-11T15:41:02.645Z,2.10
2023-02-11T15:43:44.678Z,2.05
2023-02-11T15:46:16.243Z,1.73
2023-02-11T15:51:22.339Z,1.90
2023-02-11T15:53:57.067Z,2.28
2023-02-11T15:56:29.801Z,1.65
2023-02-11T15:59:00.981Z,1.90
2023-02-11T16:01:33.619Z,1.65
2023-02-11T16:04:03.988Z,2.30
2023-02-11T16:06:39.827Z,2.63
2023-02-11T16:09:26.385Z,1.70
2023-02-11T16:12:00.196Z,2.38
2023-02-11T16:14:34.792Z,1.98
2023-02-11T16:17:06.600Z,1.92
2023-02-11T16:19:36.832Z,2.17
2023-02-11T16:22:11.917Z,2.60
2023-02-11T16:24:41.868Z,3.55
2023-02-11T16:27:22.785Z,2.83
2023-02-11T16:29:52.302Z,2.97
2023-02-11T16:32:22.473Z,3.67
2023-02-11T16:34:51.877Z,3.35
2023-02-11T16:37:20.071Z,3.22
2023-02-11T16:39:55.343Z,3.03
2023-02-11T16:42:23.496Z,2.80
2023-02-11T16:44:51.970Z,2.72
2023-02-11T16:47:24.451Z,3.13
2023-02-11T16:49:53.485Z,2.28
2023-02-11T16:52:22.870Z,2.15
2023-02-11T16:54:52.627Z,2.40
2023-02-11T16:57:23.021Z,2.50
2023-02-11T16:59:51.678Z,2.40
2023-02-11T17:02:24.285Z,2.25
2023-02-11T17:04:54.087Z,2.67
2023-02-11T17:07:22.498Z,2.78
2023-02-11T17:09:53.006Z,2.30
2023-02-11T17:12:21.344Z,2.30
2023-02-11T17:14:49.403Z,2.67
2023-02-11T17:17:17.644Z,2.15
2023-02-11T17:19:47.875Z,1.55
2023-02-11T17:22:16.188Z,1.90
2023-02-11T17:24:44.355Z,2.13
2023-02-11T17:27:15.320Z,1.30
2023-02-11T17:29:43.523Z,1.95
2023-02-11T17:32:12.017Z,1.83
2023-02-11T17:34:40.314Z,1.77
2023-02-11T17:37:09.409Z,1.55
2023-02-11T17:39:37.791Z,1.67
2023-02-11T17:42:07.457Z,1.85
2023-02-11T17:44:37.372Z,1.98
2023-02-11T17:47:05.639Z,2.28
2023-02-11T17:49:33.785Z,1.88
2023-02-11T17:52:02.067Z,4.20
2023-02-11T17:54:30.384Z,6.82
2023-02-11T17:57:01.610Z,2.10
2023-02-11T17:59:35.408Z,3.47
2023-02-11T18:02:05.991Z,2.05
2023-02-11T18:04:34.449Z,1.58
2023-02-11T18:07:02.810Z,6.43
2023-02-11T18:09:31.009Z,3.67
2023-02-11T18:11:59.235Z,2.17
2023-02-11T18:14:27.339Z,2.75
2023-02-11T18:16:55.548Z,3.45
2023-02-11T18:19:25.546Z,4.88
2023-02-11T18:21:53.820Z,4.22
2023-02-11T18:24:22.112Z,6.82
2023-02-11T18:26:50.283Z,5.20
2023-02-11T18:29:19.108Z,5.35
2023-02-11T18:31:47.429Z,4.18
2023-02-11T18:34:15.988Z,2.92
2023-02-11T18:36:45.563Z,3.17
2023-02-11T18:39:14.093Z,3.50
2023-02-11T18:41:43.641Z,4.43
2023-02-11T18:44:14.252Z,4.00
2023-02-11T18:46:42.474Z,4.43
2023-02-11T18:49:13.246Z,4.45
2023-02-11T18:51:41.446Z,12.93
2023-02-11T18:54:13.677Z,11.48
2023-02-11T18:56:41.926Z,9.65
2023-02-11T18:59:10.150Z,5.78
2023-02-11T19:01:40.506Z,3.78
2023-02-11T19:04:08.809Z,4.28
2023-02-11T19:06:38.813Z,3.75
2023-02-11T19:09:09.951Z,3.30
2023-02-11T19:11:50.534Z,3.75
2023-02-11T19:14:21.854Z,4.43
2023-02-11T19:16:51.718Z,3.60
2023-02-11T19:19:24.464Z,2.42
2023-02-11T19:21:52.884Z,1.75
2023-02-11T19:24:22.116Z,2.85
2023-02-11T19:26:54.188Z,2.58
2023-02-11T19:29:22.512Z,2.00
2023-02-11T19:31:51.120Z,1.23
2023-02-11T19:34:21.104Z,2.15
2023-02-11T19:36:49.552Z,2.50
2023-02-11T19:39:18.567Z,2.67
2023-02-11T19:41:46.693Z,2.38
2023-02-11T19:44:16.724Z,2.33
2023-02-11T19:46:46.171Z,2.58
2023-02-11T19:49:23.129Z,3.58
2023-02-11T19:51:51.622Z,3.17
2023-02-11T19:54:20.332Z,3.00
2023-02-11T19:56:48.884Z,3.05
2023-02-11T19:59:18.999Z,2.60
2023-02-11T20:01:49.145Z,3.15
2023-02-11T20:04:17.466Z,2.47
2023-02-11T20:06:48.114Z,2.63
2023-02-11T20:09:16.812Z,2.70
2023-02-11T20:11:45.012Z,2.85
2023-02-11T20:14:14.881Z,2.92
2023-02-11T20:16:48.990Z,2.35
2023-02-11T20:19:20.361Z,2.90
2023-02-11T20:21:52.407Z,3.30
2023-02-11T20:24:21.402Z,3.05
2023-02-11T20:26:51.708Z,2.55
2023-02-11T20:29:20.687Z,3.45
2023-02-11T20:31:51.792Z,3.28
2023-02-11T20:34:21.307Z,3.35
2023-02-11T20:36:52.257Z,3.08
2023-02-11T20:39:22.377Z,3.40
2023-02-11T20:41:51.580Z,3.47
2023-02-11T20:44:21.818Z,3.55
2023-02-11T20:46:54.342Z,3.30
2023-02-11T20:49:25.362Z,3.38
2023-02-11T20:51:54.029Z,3.58
2023-02-11T20:54:23.495Z,3.55
2023-02-11T20:56:53.787Z,3.72
2023-02-11T20:59:22.779Z,3.72
2023-02-11T21:01:55.576Z,3.30
2023-02-11T21:04:26.219Z,3.90
2023-02-11T21:06:57.042Z,3.92
2023-02-11T21:09:27.928Z,4.40
2023-02-11T21:11:57.019Z,3.83
2023-02-11T21:14:26.186Z,4.43
2023-02-11T21:16:55.959Z,3.67
2023-02-11T21:19:24.163Z,4.07
2023-02-11T21:21:52.573Z,4.25
2023-02-11T21:24:20.785Z,4.20
2023-02-11T21:26:48.934Z,3.67
2023-02-11T21:29:17.445Z,4.30
2023-02-11T21:31:45.645Z,4.43
2023-02-11T21:34:16.346Z,5.00
2023-02-11T21:36:45.371Z,5.47
2023-02-11T21:39:14.069Z,5.15
2023-02-11T21:41:42.268Z,5.40
2023-02-11T21:44:10.416Z,4.70
2023-02-11T21:46:38.785Z,4.40
2023-02-11T21:49:07.040Z,3.35
2023-02-11T21:51:36.895Z,3.63
2023-02-11T21:54:05.760Z,3.97
2023-02-11T21:56:35.628Z,3.45
2023-02-11T21:59:04.622Z,3.72
2023-02-11T22:01:35.447Z,3.05
2023-02-11T22:04:03.938Z,3.17
2023-02-11T22:06:35.300Z,2.58
2023-02-11T22:09:07.436Z,2.95
2023-02-11T22:11:35.891Z,2.83
2023-02-11T22:14:04.741Z,2.42
2023-02-11T22:16:33.280Z,2.53
2023-02-11T22:19:02.473Z,2.75
2023-02-11T22:21:30.949Z,2.38
2023-02-11T22:23:59.279Z,2.63
2023-02-11T22:26:29.946Z,2.58
2023-02-11T22:28:58.269Z,2.97
2023-02-11T22:31:29.706Z,2.40
2023-02-11T22:36:28.547Z,2.35
2023-02-11T22:38:57.478Z,2.20
2023-02-11T22:41:25.884Z,2.40
2023-02-11T22:43:55.464Z,2.55
2023-02-11T22:46:23.791Z,2.53
2023-02-11T22:48:52.472Z,2.40
2023-02-11T22:51:22.977Z,2.28
2023-02-11T22:53:52.751Z,1.83
2023-02-11T22:56:21.349Z,2.08
2023-02-11T22:58:50.300Z,1.67
2023-02-11T23:01:20.372Z,1.60
2023-02-11T23:03:48.872Z,2.65
2023-02-11T23:06:17.699Z,3.58
2023-02-11T23:08:46.316Z,3.45
2023-02-11T23:11:16.951Z,3.22
2023-02-11T23:13:46.958Z,2.70
2023-02-11T23:16:17.835Z,2.03
2023-02-11T23:18:50.249Z,2.05
2023-02-11T23:21:21.641Z,2.08
2023-02-11T23:23:50.623Z,1.88
2023-02-11T23:26:19.725Z,1.73
2023-02-11T23:28:48.231Z,1.63
2023-02-11T23:31:19.154Z,1.67
2023-02-11T23:33:49.876Z,1.63
2023-02-11T23:36:19.618Z,1.53
2023-02-11T23:38:47.855Z,1.13
2023-02-11T23:41:17.118Z,1.77
2023-02-11T23:43:45.636Z,1.75
2023-02-11T23:46:13.828Z,1.83
2023-02-11T23:48:42.014Z,1.80
2023-02-11T23:51:12.118Z,1.88
2023-02-11T23:53:41.186Z,1.75
2023-02-11T23:56:11.046Z,1.70
2023-02-11T23:58:39.268Z,1.50
